createdAt,value
2023-03-14T00:00:38.960Z,71.88
2023-03-14T00:01:38.698Z,72.16
2023-03-14T00:02:38.814Z,72.35
2023-03-14T00:03:38.915Z,72.45
2023-03-14T00:04:38.911Z,72.92
2023-03-14T00:05:38.877Z,72.92
2023-03-14T00:06:38.607Z,73.3
2023-03-14T00:07:38.616Z,73.21
2023-03-14T00:08:38.845Z,73.88
2023-03-14T00:09:38.822Z,73.49
2023-03-14T00:10:38.815Z,73.97
2023-03-14T00:11:38.814Z,73.88
2023-03-14T00:12:38.539Z,74.07
2023-03-14T00:13:38.891Z,75.11
2023-03-14T00:14:38.801Z,75.59
2023-03-14T00:15:38.860Z,75.78
2023-03-14T00:16:38.477Z,75.68
2023-03-14T00:17:38.741Z,76.92
2023-03-14T00:18:38.730Z,77.01
2023-03-14T00:19:38.694Z,78.16
2023-03-14T00:20:38.426Z,78.63
2023-03-14T00:21:38.664Z,78.72
2023-03-14T00:22:38.406Z,81.86
2023-03-14T00:23:38.655Z,82.81
2023-03-14T00:24:38.362Z,83.58
2023-03-14T00:25:38.612Z,83.95
2023-03-14T00:26:38.596Z,84.05
2023-03-14T00:27:38.584Z,84.33
2023-03-14T00:28:38.571Z,84.72
2023-03-14T00:29:38.629Z,84.91
2023-03-14T00:30:38.285Z,85.1
2023-03-14T00:31:38.658Z,86.14
2023-03-14T00:32:38.549Z,85.95
2023-03-14T00:33:38.259Z,86.33
2023-03-14T00:34:38.490Z,86.05
2023-03-14T00:35:38.310Z,86.05
2023-03-14T00:36:38.455Z,86.14
2023-03-14T00:37:38.451Z,85.66
2023-03-14T00:38:38.428Z,86.43
2023-03-14T00:39:38.415Z,86.71
2023-03-14T00:40:38.400Z,87.47
2023-03-14T00:41:38.387Z,87.28
2023-03-14T00:42:38.376Z,87.38
2023-03-14T00:43:38.361Z,87.28
2023-03-14T00:44:38.363Z,87.09
2023-03-14T00:45:38.392Z,87.19
2023-03-14T00:46:39.659Z,87.76
2023-03-14T00:47:38.298Z,87.66
2023-03-14T00:48:38.316Z,87.09
2023-03-14T00:49:38.291Z,87.28
2023-03-14T00:50:38.266Z,87.28
2023-03-14T00:51:37.990Z,87.28
2023-03-14T00:52:38.236Z,87.47
2023-03-14T00:53:38.249Z,88.52
2023-03-14T00:54:38.203Z,88.04
2023-03-14T00:55:38.194Z,87.66
2023-03-14T00:56:37.941Z,88.42
2023-03-14T00:57:38.160Z,87.66
2023-03-14T00:58:38.147Z,87.76
2023-03-14T00:59:38.140Z,88.23
2023-03-14T01:00:38.153Z,87.66
2023-03-14T01:01:38.192Z,87.38
2023-03-14T01:02:37.908Z,86.9
2023-03-14T01:03:38.091Z,87.19
2023-03-14T01:04:38.174Z,86.52
2023-03-14T01:05:38.061Z,85.95
2023-03-14T01:06:38.052Z,86.33
2023-03-14T01:07:38.031Z,86.52
2023-03-14T01:08:38.015Z,86.24
2023-03-14T01:09:37.752Z,86.14
2023-03-14T01:10:37.992Z,86.24
2023-03-14T01:11:37.721Z,86.14
2023-03-14T01:12:37.706Z,86.24
2023-03-14T01:13:37.703Z,86.33
2023-03-14T01:14:37.686Z,86.24
2023-03-14T01:15:37.919Z,86.05
2023-03-14T01:16:38.053Z,86.33
2023-03-14T01:17:37.940Z,86.52
2023-03-14T01:18:37.878Z,86.8
2023-03-14T01:19:37.671Z,87.19
2023-03-14T01:20:37.849Z,87.38
2023-03-14T01:21:37.837Z,88.13
2023-03-14T01:22:37.579Z,89.09
2023-03-14T01:23:37.558Z,90.52
2023-03-14T01:24:37.798Z,90.42
2023-03-14T01:25:37.787Z,90.7
2023-03-14T01:26:37.792Z,90.42
2023-03-14T01:27:37.764Z,92.22
2023-03-14T01:28:37.748Z,92.32
2023-03-14T01:29:37.723Z,93.08
2023-03-14T01:30:37.460Z,94.13
2023-03-14T01:31:37.881Z,94.22
2023-03-14T01:32:37.562Z,94.22
2023-03-14T01:33:37.726Z,94.32
2023-03-14T01:34:37.668Z,94.03
2023-03-14T01:35:37.707Z,94.42
2023-03-14T01:36:37.640Z,94.6
2023-03-14T01:37:37.620Z,94.98
2023-03-14T01:38:37.630Z,94.6
2023-03-14T01:39:37.586Z,95.08
2023-03-14T01:40:37.590Z,95.46
2023-03-14T01:41:37.560Z,95.75
2023-03-14T01:42:37.555Z,96.12
2023-03-14T01:43:37.547Z,97.45
2023-03-14T01:44:37.266Z,97.74
2023-03-14T01:45:37.584Z,98.6
2023-03-14T01:46:37.509Z,99.74
2023-03-14T01:47:37.222Z,99.99
2023-03-14T01:48:37.523Z,99.99
2023-03-14T01:49:37.512Z,99.99
2023-03-14T01:50:37.441Z,99.99
2023-03-14T01:51:37.451Z,99.99
2023-03-14T01:52:37.158Z,99.99
2023-03-14T01:53:37.446Z,99.99
2023-03-14T01:54:37.383Z,99.99
2023-03-14T01:55:37.369Z,99.99
2023-03-14T01:56:37.111Z,99.99
2023-03-14T01:57:37.340Z,99.99
2023-03-14T01:58:37.329Z,99.99
2023-03-14T01:59:37.311Z,99.99
2023-03-14T02:00:37.390Z,99.99
2023-03-14T02:01:37.295Z,99.99
2023-03-14T02:02:37.028Z,99.99
2023-03-14T02:03:37.137Z,99.99
2023-03-14T02:04:37.001Z,99.99
2023-03-14T02:05:37.369Z,99.99
2023-03-14T02:06:37.214Z,99.99
2023-03-14T02:07:36.969Z,99.99
2023-03-14T02:08:36.945Z,99.99
2023-03-14T02:09:37.182Z,99.99
2023-03-14T02:10:37.165Z,99.99
2023-03-14T02:11:36.889Z,99.99
2023-03-14T02:12:36.880Z,99.99
2023-03-14T02:13:37.120Z,99.99
2023-03-14T02:14:37.107Z,99.99
2023-03-14T02:15:36.880Z,99.99
2023-03-14T02:16:37.268Z,99.99
2023-03-14T02:17:36.816Z,99.99
2023-03-14T02:18:37.045Z,99.99
2023-03-14T02:19:37.049Z,99.99
2023-03-14T02:20:37.022Z,99.99
2023-03-14T02:21:37.063Z,99.99
2023-03-14T02:22:37.000Z,99.99
2023-03-14T02:23:36.734Z,99.99
2023-03-14T02:24:36.973Z,99.99
2023-03-14T02:25:37.001Z,99.99
2023-03-14T02:26:36.676Z,99.99
2023-03-14T02:27:36.917Z,99.99
2023-03-14T02:28:36.900Z,99.99
2023-03-14T02:29:36.888Z,99.99
2023-03-14T02:30:36.618Z,99.99
2023-03-14T02:31:36.695Z,99.99
2023-03-14T02:32:36.717Z,99.99
2023-03-14T02:33:36.590Z,99.99
2023-03-14T02:34:36.903Z,99.99
2023-03-14T02:35:36.623Z,99.99
2023-03-14T02:36:36.784Z,99.99
2023-03-14T02:37:36.841Z,99.99
2023-03-14T02:38:36.764Z,99.99
2023-03-14T02:39:36.746Z,99.99
2023-03-14T02:40:36.733Z,99.99
2023-03-14T02:41:36.723Z,99.99
2023-03-14T02:42:36.453Z,99.99
2023-03-14T02:43:36.436Z,99.99
2023-03-14T02:44:36.419Z,99.99
2023-03-14T02:45:36.517Z,99.99
2023-03-14T02:46:36.392Z,99.99
2023-03-14T02:47:36.640Z,99.99
2023-03-14T02:48:36.622Z,99.99
2023-03-14T02:49:36.362Z,99.99
2023-03-14T02:50:36.592Z,99.99
2023-03-14T02:51:36.583Z,99.99
2023-03-14T02:52:36.677Z,99.99
2023-03-14T02:53:36.718Z,99.99
2023-03-14T02:54:36.647Z,99.99
2023-03-14T02:55:36.641Z,99.99
2023-03-14T02:56:36.632Z,99.99
2023-03-14T02:57:36.610Z,99.99
2023-03-14T02:58:36.617Z,99.99
2023-03-14T02:59:36.577Z,99.99
2023-03-14T03:00:36.600Z,99.99
2023-03-14T03:01:36.443Z,99.99
2023-03-14T03:02:36.540Z,99.99
2023-03-14T03:03:36.660Z,99.99
2023-03-14T03:04:36.510Z,99.99
2023-03-14T03:05:36.500Z,99.99
2023-03-14T03:06:36.238Z,99.99
2023-03-14T03:07:36.226Z,99.99
2023-03-14T03:08:36.463Z,99.99
2023-03-14T03:09:37.367Z,99.99
2023-03-14T03:10:37.316Z,99.99
2023-03-14T03:11:37.294Z,99.99
2023-03-14T03:12:37.047Z,99.99
2023-03-14T03:13:37.009Z,99.99
2023-03-14T03:14:37.260Z,99.99
2023-03-14T03:15:37.249Z,99.99
2023-03-14T03:16:37.338Z,99.99
2023-03-14T03:17:37.232Z,99.99
2023-03-14T03:18:37.202Z,99.99
2023-03-14T03:19:36.975Z,99.99
2023-03-14T03:20:36.918Z,99.99
2023-03-14T03:21:36.919Z,99.99
2023-03-14T03:22:37.155Z,99.99
2023-03-14T03:23:37.132Z,99.99
2023-03-14T03:24:37.120Z,99.99
2023-03-14T03:25:37.263Z,99.99
2023-03-14T03:26:36.837Z,99.99
2023-03-14T03:27:37.130Z,99.99
2023-03-14T03:28:37.068Z,99.99
2023-03-14T03:29:37.078Z,99.99
2023-03-14T03:30:37.099Z,99.99
2023-03-14T03:31:37.024Z,99.99
2023-03-14T03:32:37.147Z,99.99
2023-03-14T03:33:36.998Z,99.99
2023-03-14T03:34:37.005Z,99.99
2023-03-14T03:35:36.790Z,99.99
2023-03-14T03:36:36.951Z,99.99
2023-03-14T03:37:36.949Z,99.99
2023-03-14T03:38:36.933Z,99.99
2023-03-14T03:39:36.910Z,99.99
2023-03-14T03:40:37.781Z,99.99
2023-03-14T03:41:37.931Z,99.99
2023-03-14T03:42:37.484Z,99.99
2023-03-14T03:43:37.730Z,99.99
2023-03-14T03:44:37.713Z,99.99
2023-03-14T03:45:37.722Z,99.99
2023-03-14T03:46:37.720Z,99.99
2023-03-14T03:47:37.681Z,99.99
2023-03-14T03:48:37.692Z,99.99
2023-03-14T03:49:37.651Z,99.99
2023-03-14T03:50:37.647Z,99.99
2023-03-14T03:51:37.361Z,99.99
2023-03-14T03:52:37.596Z,99.99
2023-03-14T03:53:37.673Z,99.99
2023-03-14T03:54:37.306Z,99.99
2023-03-14T03:55:37.550Z,99.99
2023-03-14T03:56:37.599Z,99.99
2023-03-14T03:57:37.562Z,99.99
2023-03-14T03:58:37.515Z,99.99
2023-03-14T03:59:37.764Z,99.99
2023-03-14T04:00:37.491Z,99.99
2023-03-14T04:01:37.432Z,99.99
2023-03-14T04:02:37.829Z,99.99
2023-03-14T04:03:37.735Z,99.99
2023-03-14T04:04:37.475Z,99.99
2023-03-14T04:05:37.152Z,99.99
2023-03-14T04:06:37.268Z,99.99
2023-03-14T04:07:37.387Z,99.99
2023-03-14T04:08:37.360Z,99.99
2023-03-14T04:09:37.354Z,99.99
2023-03-14T04:10:37.338Z,99.99
2023-03-14T04:11:37.317Z,99.99
2023-03-14T04:12:37.112Z,99.99
2023-03-14T04:13:37.365Z,99.99
2023-03-14T04:14:37.053Z,99.99
2023-03-14T04:15:37.247Z,99.99
2023-03-14T04:16:37.251Z,99.99
2023-03-14T04:17:37.257Z,99.99
2023-03-14T04:18:36.962Z,99.99
2023-03-14T04:19:37.210Z,99.99
2023-03-14T04:20:37.281Z,99.99
2023-03-14T04:21:37.204Z,99.99
2023-03-14T04:22:36.908Z,99.99
2023-03-14T04:23:37.146Z,99.99
2023-03-14T04:24:36.872Z,99.99
2023-03-14T04:25:36.863Z,99.99
2023-03-14T04:26:37.097Z,99.99
2023-03-14T04:27:36.836Z,99.99
2023-03-14T04:28:37.070Z,99.99
2023-03-14T04:45:44.218Z,99.99
2023-03-14T04:46:44.276Z,99.99
2023-03-14T04:47:44.122Z,99.99
2023-03-14T04:48:44.125Z,99.99
2023-03-14T04:49:44.094Z,99.99
2023-03-14T04:50:44.087Z,99.99
2023-03-14T04:51:44.084Z,99.99
2023-03-14T04:52:44.041Z,99.99
2023-03-14T04:53:43.766Z,99.99
2023-03-14T04:54:44.013Z,99.99
2023-03-14T04:55:43.735Z,99.99
2023-03-14T04:56:43.984Z,99.99
2023-03-14T04:57:43.956Z,99.99
2023-03-14T04:58:43.959Z,99.99
2023-03-14T04:59:43.931Z,99.99
2023-03-14T05:00:43.924Z,99.99
2023-03-14T05:01:44.008Z,99.99
2023-03-14T05:02:44.012Z,99.99
2023-03-14T05:03:43.876Z,99.99
2023-03-14T05:04:43.862Z,99.99
2023-03-14T05:05:43.843Z,99.99
2023-03-14T05:06:43.584Z,99.99
2023-03-14T05:07:43.802Z,99.99
2023-03-14T05:08:43.794Z,99.99
2023-03-14T05:09:43.777Z,99.99
2023-03-14T05:10:43.760Z,99.99
2023-03-14T05:11:43.498Z,99.99
2023-03-14T05:12:43.740Z,99.99
2023-03-14T05:13:43.459Z,99.99
2023-03-14T05:14:43.711Z,99.99
2023-03-14T05:15:43.697Z,99.99
2023-03-14T05:16:43.418Z,99.99
2023-03-14T05:17:43.708Z,99.99
2023-03-14T05:18:43.388Z,99.99
2023-03-14T05:19:43.667Z,99.99
2023-03-14T05:20:43.618Z,99.99
2023-03-14T05:21:43.597Z,99.99
2023-03-14T05:22:43.603Z,99.99
2023-03-14T05:23:43.603Z,99.99
2023-03-14T05:24:43.299Z,99.99
2023-03-14T05:25:43.309Z,99.99
2023-03-14T05:26:43.529Z,99.99
2023-03-14T05:27:43.504Z,99.99
2023-03-14T05:28:43.497Z,99.99
2023-03-14T05:29:43.485Z,99.99
2023-03-14T05:30:43.486Z,99.99
2023-03-14T05:31:43.374Z,99.99
2023-03-14T05:32:43.632Z,99.99
2023-03-14T05:33:43.486Z,99.99
2023-03-14T05:34:43.155Z,99.99
2023-03-14T05:35:43.562Z,99.99
2023-03-14T05:36:43.403Z,99.99
2023-03-14T05:37:43.371Z,99.99
2023-03-14T05:38:43.366Z,99.99
2023-03-14T05:39:43.089Z,99.99
2023-03-14T05:40:43.339Z,99.99
2023-03-14T05:41:43.330Z,99.99
2023-03-14T05:42:43.053Z,99.99
2023-03-14T05:43:43.290Z,99.99
2023-03-14T05:44:43.014Z,99.99
2023-03-14T05:45:43.121Z,99.99
2023-03-14T05:46:43.004Z,99.99
2023-03-14T05:47:43.233Z,99.99
2023-03-14T05:48:42.956Z,99.99
2023-03-14T05:49:43.283Z,99.99
2023-03-14T05:50:43.189Z,99.99
2023-03-14T05:51:43.175Z,99.99
2023-03-14T05:52:42.902Z,99.99
2023-03-14T05:53:43.149Z,99.99
2023-03-14T05:54:43.130Z,99.99
2023-03-14T05:55:43.136Z,99.99
2023-03-14T05:56:43.123Z,99.99
2023-03-14T05:57:42.835Z,99.99
2023-03-14T05:58:43.079Z,99.99
2023-03-14T05:59:42.873Z,99.99
2023-03-14T06:00:43.059Z,99.99
2023-03-14T06:01:42.879Z,99.99
2023-03-14T06:02:43.006Z,99.99
2023-03-14T06:03:43.137Z,99.99
2023-03-14T06:04:42.981Z,99.99
2023-03-14T06:05:43.264Z,99.99
2023-03-14T06:06:42.983Z,99.99
2023-03-14T06:07:42.695Z,99.99
2023-03-14T06:08:42.920Z,99.99
2023-03-14T06:09:42.685Z,99.99
2023-03-14T06:10:42.645Z,99.99
2023-03-14T06:11:42.629Z,99.99
2023-03-14T06:12:42.892Z,99.99
2023-03-14T06:13:42.897Z,99.99
2023-03-14T06:14:42.840Z,99.99
2023-03-14T06:15:42.857Z,99.99
2023-03-14T06:16:42.914Z,99.99
2023-03-14T06:17:42.828Z,99.99
2023-03-14T06:18:42.790Z,99.99
2023-03-14T06:19:42.518Z,99.99
2023-03-14T06:20:42.837Z,99.99
2023-03-14T06:21:42.889Z,99.99
2023-03-14T06:22:42.473Z,99.99
2023-03-14T06:23:42.732Z,99.99
2023-03-14T06:24:42.712Z,99.99
2023-03-14T06:25:42.706Z,99.99
2023-03-14T06:26:42.416Z,99.99
2023-03-14T06:27:42.403Z,99.99
2023-03-14T06:28:42.672Z,99.99
2023-03-14T06:29:42.631Z,99.99
2023-03-14T06:30:42.864Z,99.99
2023-03-14T06:31:42.352Z,99.99
2023-03-14T06:32:42.709Z,99.99
2023-03-14T06:33:42.576Z,99.99
2023-03-14T06:34:42.332Z,99.99
2023-03-14T06:35:42.626Z,99.99
2023-03-14T06:36:42.278Z,99.99
2023-03-14T06:37:42.579Z,99.99
2023-03-14T06:38:42.511Z,99.99
2023-03-14T06:39:42.498Z,99.99
2023-03-14T06:40:42.233Z,99.99
2023-03-14T06:41:42.470Z,99.99
2023-03-14T06:42:42.207Z,99.99
2023-03-14T06:43:42.192Z,99.99
2023-03-14T06:44:42.438Z,99.99
2023-03-14T06:45:42.485Z,99.99
2023-03-14T06:46:42.147Z,99.99
2023-03-14T06:47:42.387Z,99.99
2023-03-14T06:48:42.389Z,99.99
2023-03-14T06:49:42.094Z,99.99
2023-03-14T06:50:42.354Z,99.99
2023-03-14T06:51:42.069Z,99.99
2023-03-14T06:52:42.440Z,99.99
2023-03-14T06:53:42.365Z,99.99
2023-03-14T06:54:42.288Z,99.99
2023-03-14T06:55:42.277Z,99.99
2023-03-14T06:56:42.000Z,99.99
2023-03-14T06:57:42.248Z,99.99
2023-03-14T06:58:42.229Z,99.99
2023-03-14T06:59:41.967Z,99.99
2023-03-14T07:00:42.218Z,99.99
2023-03-14T07:01:42.318Z,99.99
2023-03-14T07:02:45.231Z,99.99
2023-03-14T07:03:42.161Z,99.99
2023-03-14T07:04:42.367Z,99.99
2023-03-14T07:05:41.875Z,99.99
2023-03-14T07:06:42.024Z,99.99
2023-03-14T07:07:42.098Z,99.99
2023-03-14T07:08:42.091Z,99.99
2023-03-14T07:09:42.164Z,99.99
2023-03-14T07:10:41.809Z,99.99
2023-03-14T07:11:42.412Z,99.99
2023-03-14T07:12:42.169Z,99.99
2023-03-14T07:13:42.124Z,99.99
2023-03-14T07:14:42.373Z,99.99
2023-03-14T07:15:42.198Z,99.99
2023-03-14T07:16:42.081Z,99.99
2023-03-14T07:17:42.332Z,99.99
2023-03-14T07:18:42.319Z,99.99
2023-03-14T07:19:42.315Z,99.99
2023-03-14T07:20:42.031Z,99.99
2023-03-14T07:21:42.280Z,99.99
2023-03-14T07:22:42.264Z,99.99
2023-03-14T07:23:42.305Z,99.99
2023-03-14T07:24:42.233Z,99.99
2023-03-14T07:25:42.311Z,99.99
2023-03-14T07:26:41.967Z,99.99
2023-03-14T07:27:42.218Z,99.99
2023-03-14T07:28:42.188Z,99.99
2023-03-14T07:29:42.172Z,99.99
2023-03-14T07:30:42.222Z,99.99
2023-03-14T07:31:42.158Z,99.99
2023-03-14T07:32:42.280Z,99.99
2023-03-14T07:33:41.877Z,99.99
2023-03-14T07:34:42.099Z,99.99
2023-03-14T07:35:42.176Z,99.99
2023-03-14T07:36:42.067Z,99.99
2023-03-14T07:37:42.100Z,99.99
2023-03-14T07:38:42.040Z,99.99
2023-03-14T07:39:42.039Z,99.99
2023-03-14T07:40:42.021Z,99.99
2023-03-14T07:41:42.301Z,99.99
2023-03-14T07:42:41.988Z,99.99
2023-03-14T07:43:41.992Z,99.99
2023-03-14T07:44:41.983Z,99.99
2023-03-14T07:45:45.558Z,99.99
2023-03-14T07:46:42.211Z,99.99
2023-03-14T07:47:41.669Z,99.99
2023-03-14T07:48:41.668Z,99.99
2023-03-14T07:49:41.647Z,99.99
2023-03-14T07:50:41.647Z,99.99
2023-03-14T07:51:41.871Z,99.99
2023-03-14T07:52:41.866Z,99.99
2023-03-14T07:53:41.860Z,99.99
2023-03-14T07:54:41.844Z,99.99
2023-03-14T07:55:41.561Z,99.99
2023-03-14T07:56:41.799Z,99.99
2023-03-14T07:57:41.922Z,99.99
2023-03-14T07:58:41.790Z,99.99
2023-03-14T07:59:41.519Z,99.99
2023-03-14T08:00:41.518Z,99.99
2023-03-14T08:01:41.744Z,99.99
2023-03-14T08:02:41.849Z,99.99
2023-03-14T08:03:41.527Z,99.99
2023-03-14T08:04:41.696Z,99.99
2023-03-14T08:05:41.686Z,99.99
2023-03-14T08:06:41.691Z,99.99
2023-03-14T08:07:41.659Z,99.99
2023-03-14T08:08:41.652Z,99.99
2023-03-14T08:09:41.633Z,99.99
2023-03-14T08:10:41.621Z,99.99
2023-03-14T08:11:41.620Z,99.99
2023-03-14T08:12:41.358Z,99.99
2023-03-14T08:13:41.666Z,99.99
2023-03-14T08:14:41.341Z,99.99
2023-03-14T08:15:41.685Z,99.99
2023-03-14T08:16:41.371Z,99.99
2023-03-14T08:17:41.532Z,99.99
2023-03-14T08:18:41.521Z,99.99
2023-03-14T08:19:41.505Z,99.99
2023-03-14T08:20:41.260Z,99.99
2023-03-14T08:21:41.227Z,99.99
2023-03-14T08:22:41.214Z,99.99
2023-03-14T08:23:41.512Z,99.99
2023-03-14T08:24:41.197Z,99.99
2023-03-14T08:25:41.623Z,99.99
2023-03-14T08:26:41.210Z,99.99
2023-03-14T08:27:41.407Z,99.99
2023-03-14T08:28:41.404Z,99.99
2023-03-14T08:29:41.529Z,99.99
2023-03-14T08:30:41.187Z,99.99
2023-03-14T08:31:41.467Z,99.99
2023-03-14T08:32:41.471Z,99.99
2023-03-14T08:33:41.349Z,99.99
2023-03-14T08:34:41.338Z,99.99
2023-03-14T08:35:41.047Z,99.99
2023-03-14T08:36:41.427Z,99.99
2023-03-14T08:37:41.319Z,99.99
2023-03-14T08:38:42.075Z,99.99
2023-03-14T08:39:42.000Z,99.99
2023-03-14T08:40:42.004Z,99.99
2023-03-14T08:41:42.257Z,99.99
2023-03-14T08:42:42.225Z,99.99
2023-03-14T08:43:42.208Z,99.99
2023-03-14T08:44:42.289Z,99.99
2023-03-14T08:45:42.394Z,99.99
2023-03-14T08:46:42.388Z,99.99
2023-03-14T08:47:42.167Z,99.99
2023-03-14T08:48:41.937Z,99.99
2023-03-14T08:49:42.290Z,99.99
2023-03-14T08:50:41.862Z,99.99
2023-03-14T08:51:41.856Z,99.99
2023-03-14T08:52:42.265Z,99.99
2023-03-14T08:53:42.078Z,99.99
2023-03-14T08:54:41.823Z,99.99
2023-03-14T08:55:42.065Z,99.99
2023-03-14T08:56:41.791Z,99.99
2023-03-14T08:57:42.038Z,99.99
2023-03-14T08:58:42.042Z,99.99
2023-03-14T08:59:42.347Z,99.99
2023-03-14T09:00:42.102Z,99.99
2023-03-14T09:01:42.374Z,99.99
2023-03-14T09:02:42.317Z,99.99
2023-03-14T09:03:42.367Z,99.99
2023-03-14T09:04:42.278Z,99.99
2023-03-14T09:05:42.274Z,99.99
2023-03-14T09:06:42.007Z,99.99
2023-03-14T09:07:42.028Z,99.99
2023-03-14T09:08:42.183Z,99.99
2023-03-14T09:09:42.223Z,99.99
2023-03-14T09:10:42.223Z,99.99
2023-03-14T09:11:41.956Z,99.99
2023-03-14T09:12:42.201Z,99.99
2023-03-14T09:13:41.926Z,99.99
2023-03-14T09:14:41.913Z,99.99
2023-03-14T09:15:42.171Z,99.99
2023-03-14T09:16:42.232Z,99.99
2023-03-14T09:17:42.170Z,99.99
2023-03-14T09:18:42.149Z,99.99
2023-03-14T09:19:41.843Z,99.99
2023-03-14T09:20:42.601Z,99.99
2023-03-14T09:21:42.606Z,99.99
2023-03-14T09:22:42.581Z,99.99
2023-03-14T09:23:42.596Z,99.99
2023-03-14T09:24:42.613Z,99.99
2023-03-14T09:25:42.292Z,99.99
2023-03-14T09:26:42.549Z,99.99
2023-03-14T09:27:42.522Z,99.99
2023-03-14T09:28:42.516Z,99.99
2023-03-14T09:29:42.504Z,99.99
2023-03-14T09:30:42.237Z,99.99
2023-03-14T09:31:42.579Z,99.99
2023-03-14T09:32:42.666Z,99.99
2023-03-14T09:33:42.525Z,99.99
2023-03-14T09:34:42.435Z,99.99
2023-03-14T09:35:42.505Z,97.84
2023-03-14T09:36:42.427Z,96.8
2023-03-14T09:37:42.432Z,97.75
2023-03-14T09:38:42.401Z,98.74
2023-03-14T09:39:42.392Z,99.99
2023-03-14T09:40:42.132Z,99.79
2023-03-14T09:41:42.108Z,99.22
2023-03-14T09:42:42.359Z,99.41
2023-03-14T09:43:42.336Z,98.36
2023-03-14T09:44:42.316Z,99.13
2023-03-14T09:45:42.429Z,99.6
2023-03-14T09:46:42.296Z,99.99
2023-03-14T09:47:58.980Z,99.99
2023-03-14T09:48:42.276Z,99.99
2023-03-14T09:49:42.315Z,98.94
2023-03-14T09:50:42.253Z,97.6
2023-03-14T09:51:42.244Z,97.6
2023-03-14T09:52:41.973Z,98.36
2023-03-14T09:53:42.209Z,98.18
2023-03-14T09:54:41.947Z,99.69
2023-03-14T09:55:41.928Z,99.99
2023-03-14T09:56:42.176Z,99.99
2023-03-14T09:57:41.910Z,99.99
2023-03-14T09:58:42.161Z,99.99
2023-03-14T09:59:42.133Z,99.99
2023-03-14T10:00:42.139Z,99.22
2023-03-14T10:01:42.209Z,99.79
2023-03-14T10:02:42.279Z,99.99
2023-03-14T10:03:42.086Z,99.99
2023-03-14T10:04:42.163Z,99.99
2023-03-14T10:05:42.119Z,99.99
2023-03-14T10:06:42.051Z,99.99
2023-03-14T10:07:41.796Z,99.99
2023-03-14T10:08:42.067Z,99.99
2023-03-14T10:09:42.032Z,99.99
2023-03-14T10:10:41.794Z,99.27
2023-03-14T10:11:42.006Z,99.27
2023-03-14T10:12:41.798Z,98.13
2023-03-14T10:13:41.984Z,96.75
2023-03-14T10:14:41.970Z,94.32
2023-03-14T10:15:41.953Z,94.79
2023-03-14T10:16:42.063Z,95.89
2023-03-14T10:17:41.983Z,95.79
2023-03-14T10:18:41.658Z,96.41
2023-03-14T10:19:41.904Z,95.12
2023-03-14T10:20:41.639Z,95.98
2023-03-14T10:21:41.999Z,94.84
2023-03-14T10:22:41.886Z,94.74
2023-03-14T10:23:41.851Z,93.41
2023-03-14T10:24:41.859Z,92.17
2023-03-14T10:25:41.838Z,91.6
2023-03-14T10:26:41.571Z,92.22
2023-03-14T10:27:41.557Z,91.03
2023-03-14T10:28:41.804Z,91.98
2023-03-14T10:29:41.806Z,92.08
2023-03-14T10:30:41.834Z,92.65
2023-03-14T10:31:41.509Z,94.17
2023-03-14T10:32:41.583Z,94.17
2023-03-14T10:33:41.492Z,94.74
2023-03-14T10:34:41.760Z,95.03
2023-03-14T10:35:41.530Z,95.12
2023-03-14T10:36:41.721Z,94.65
2023-03-14T10:37:41.911Z,95.03
2023-03-14T10:38:41.695Z,96.32
2023-03-14T10:39:41.429Z,94.89
2023-03-14T10:40:41.686Z,94.98
2023-03-14T10:41:41.666Z,95.36
2023-03-14T10:42:41.404Z,95.75
2023-03-14T10:43:41.636Z,95.36
2023-03-14T10:44:41.635Z,94.98
2023-03-14T10:45:41.655Z,95.08
2023-03-14T10:46:41.819Z,96.12
2023-03-14T10:47:41.608Z,97.08
2023-03-14T10:48:41.324Z,97.75
2023-03-14T10:49:41.577Z,98.89
2023-03-14T10:50:41.568Z,98.22
2023-03-14T10:51:41.549Z,97.65
2023-03-14T10:53:03.501Z,99.03
2023-03-14T10:53:41.573Z,98.99
2023-03-14T10:54:41.511Z,98.89
2023-03-14T10:55:41.253Z,98.79
2023-03-14T10:56:41.237Z,98.41
2023-03-14T10:57:41.499Z,96.8
2023-03-14T10:58:41.465Z,96.12
2023-03-14T10:59:41.462Z,95.6
2023-03-14T11:00:41.445Z,96.41
2023-03-14T11:01:41.523Z,97.27
2023-03-14T11:02:41.428Z,97.79
2023-03-14T11:03:41.423Z,96.41
2023-03-14T11:04:41.484Z,95.56
2023-03-14T11:05:41.158Z,95.65
2023-03-14T11:06:41.374Z,96.84
2023-03-14T11:07:41.380Z,98.27
2023-03-14T11:08:41.136Z,99.99
2023-03-14T11:09:41.373Z,99.99
2023-03-14T11:10:41.528Z,99.99
2023-03-14T11:11:41.079Z,99.99
2023-03-14T11:12:41.316Z,99.99
2023-03-14T11:13:41.331Z,99.99
2023-03-14T11:14:41.289Z,99.99
2023-03-14T11:15:41.368Z,99.99
2023-03-14T11:16:41.265Z,99.99
2023-03-14T11:17:41.000Z,99.99
2023-03-14T11:18:41.018Z,99.99
2023-03-14T11:19:41.383Z,99.99
2023-03-14T11:20:41.208Z,99.99
2023-03-14T11:21:41.225Z,99.99
2023-03-14T11:22:40.949Z,99.99
2023-03-14T11:23:41.180Z,99.99
2023-03-14T11:24:40.959Z,99.99
2023-03-14T11:25:41.266Z,99.99
2023-03-14T11:26:41.162Z,99.99
2023-03-14T11:27:41.135Z,99.99
2023-03-14T11:28:41.123Z,99.99
2023-03-14T11:29:41.117Z,99.99
2023-03-14T11:30:41.093Z,99.99
2023-03-14T11:31:41.469Z,99.99
2023-03-14T11:32:41.768Z,99.99
2023-03-14T11:33:41.271Z,99.99
2023-03-14T11:34:41.442Z,99.99
2023-03-14T11:35:41.490Z,99.99
2023-03-14T11:36:41.066Z,99.99
2023-03-14T11:37:40.764Z,99.99
2023-03-14T11:38:40.999Z,99.99
2023-03-14T11:39:41.044Z,99.99
2023-03-14T11:40:41.110Z,99.99
2023-03-14T11:41:40.993Z,99.99
2023-03-14T11:42:40.952Z,99.99
2023-03-14T11:43:40.934Z,99.99
2023-03-14T11:44:40.684Z,99.99
2023-03-14T11:45:41.049Z,99.99
2023-03-14T11:46:41.145Z,99.99
2023-03-14T11:47:40.889Z,99.99
2023-03-14T11:48:40.789Z,99.99
2023-03-14T11:49:40.866Z,99.99
2023-03-14T11:50:40.862Z,99.99
2023-03-14T11:51:40.862Z,99.99
2023-03-14T11:52:41.156Z,99.99
2023-03-14T11:53:41.409Z,99.99
2023-03-14T11:54:41.393Z,99.99
2023-03-14T11:55:41.374Z,99.99
2023-03-14T11:56:41.430Z,99.99
2023-03-14T11:57:41.387Z,99.99
2023-03-14T11:58:41.951Z,99.99
2023-03-14T11:59:41.331Z,99.99
2023-03-14T12:00:41.320Z,99.99
2023-03-14T12:01:41.161Z,99.99
2023-03-14T12:02:41.067Z,99.99
2023-03-14T12:03:41.353Z,99.99
2023-03-14T12:04:41.039Z,99.99
2023-03-14T12:05:41.256Z,99.99
2023-03-14T12:06:41.248Z,99.99
2023-03-14T12:07:41.019Z,99.99
2023-03-14T12:08:40.969Z,99.99
2023-03-14T12:09:41.209Z,99.99
2023-03-14T12:10:40.947Z,99.99
2023-03-14T12:11:40.946Z,99.99
2023-03-14T12:12:40.984Z,99.99
2023-03-14T12:13:41.187Z,99.99
2023-03-14T12:14:41.173Z,99.99
2023-03-14T12:15:41.313Z,99.99
2023-03-14T12:16:43.644Z,99.99
2023-03-14T12:17:41.155Z,99.99
2023-03-14T12:18:41.103Z,99.99
2023-03-14T12:19:41.123Z,99.99
2023-03-14T12:20:41.086Z,99.99
2023-03-14T12:21:41.072Z,99.99
2023-03-14T12:22:41.062Z,99.99
2023-03-14T12:23:40.793Z,99.99
2023-03-14T12:24:41.045Z,99.99
2023-03-14T12:25:40.777Z,99.99
2023-03-14T12:26:40.755Z,99.99
2023-03-14T12:27:40.770Z,99.99
2023-03-14T12:28:41.012Z,99.99
2023-03-14T12:29:41.047Z,99.99
2023-03-14T12:30:40.759Z,99.99
2023-03-14T12:31:40.831Z,99.99
2023-03-14T12:32:41.084Z,99.99
2023-03-14T12:33:40.945Z,99.99
2023-03-14T12:34:43.089Z,99.99
2023-03-14T12:35:41.063Z,99.99
2023-03-14T12:36:40.908Z,99.99
2023-03-14T12:37:40.892Z,99.99
2023-03-14T12:38:40.900Z,99.99
2023-03-14T12:39:40.604Z,99.99
2023-03-14T12:40:40.623Z,99.99
2023-03-14T12:41:40.848Z,99.99
2023-03-14T12:42:47.290Z,99.99
2023-03-14T12:43:40.826Z,99.99
2023-03-14T12:44:40.835Z,99.99
2023-03-14T12:45:41.672Z,99.99
2023-03-14T12:46:40.783Z,99.99
2023-03-14T12:47:40.771Z,99.99
2023-03-14T12:48:40.755Z,99.99
2023-03-14T12:49:40.493Z,99.99
2023-03-14T12:50:40.728Z,99.99
2023-03-14T12:51:40.728Z,99.99
2023-03-14T12:52:43.028Z,99.99
2023-03-14T12:53:40.697Z,99.99
2023-03-14T12:54:40.680Z,99.99
2023-03-14T12:55:40.428Z,99.99
2023-03-14T12:56:40.672Z,99.99
2023-03-14T12:57:40.679Z,99.99
2023-03-14T12:58:40.379Z,99.99
2023-03-14T12:59:40.634Z,99.99
2023-03-14T13:00:40.393Z,99.99
2023-03-14T13:01:40.648Z,99.99
2023-03-14T13:02:40.588Z,99.99
2023-03-14T13:03:40.649Z,99.99
2023-03-14T13:04:42.721Z,99.99
2023-03-14T13:05:40.561Z,99.99
2023-03-14T13:06:40.663Z,99.99
2023-03-14T13:07:40.562Z,99.99
2023-03-14T13:08:42.959Z,99.99
2023-03-14T13:09:40.532Z,99.99